Carmarthen, United Kingdom
Current Conditions -  °F | °C
As of 10:50 PM on Thursday 18 Dec 2014 (Local Time) from EGOP Reporting Station
Overcast Overcast  
Wind Chill: 54°   Ceiling: 300
Heat Index: 54°   Visibility: 2.2mi
Dew Point: 54°   Wind: 36mph
Humidity: 100%   Direction: 240°WSW
Pressure: 29.8"   Gusts: NA
Location:  51.86°N, 4.31°W
Report Text: EGOP 182250Z AUTO 24031KT 3600 // OVC003/// 12/12 Q1009
Loading
Personal Weather Stations






























Interactive Weather Map New forecast layout! Learn more

10-Day Weather Forecast

Advertisements
Track Severe Weather on mobile